sensor_id;sensor_type;location;lat;lon;timestamp;pressure;altitude;pressure_sealevel;temperature;humidity
38452;BME280;24231;52.514;13.438;2023-01-27T00:03:02;101711.03;;;3.80;62.06
38452;BME280;24231;52.514;13.438;2023-01-27T00:05:29;101707.96;;;4.22;60.61
38452;BME280;24231;52.514;13.438;2023-01-27T00:07:57;101709.14;;;3.92;61.88
38452;BME280;24231;52.514;13.438;2023-01-27T00:10:24;101709.10;;;4.00;61.64
38452;BME280;24231;52.514;13.438;2023-01-27T00:12:52;101712.63;;;4.07;61.35
38452;BME280;24231;52.514;13.438;2023-01-27T00:15:20;101716.86;;;4.06;61.34
38452;BME280;24231;52.514;13.438;2023-01-27T00:17:47;101714.66;;;2.99;64.29
38452;BME280;24231;52.514;13.438;2023-01-27T00:20:15;101713.78;;;3.24;63.91
38452;BME280;24231;52.514;13.438;2023-01-27T00:22:54;101708.76;;;2.62;67.97
38452;BME280;24231;52.514;13.438;2023-01-27T00:25:21;101706.68;;;3.49;63.86
38452;BME280;24231;52.514;13.438;2023-01-27T00:27:48;101704.28;;;3.46;63.80
38452;BME280;24231;52.514;13.438;2023-01-27T00:30:16;101703.81;;;3.07;64.95
38452;BME280;24231;52.514;13.438;2023-01-27T00:32:44;101702.15;;;3.73;62.70
38452;BME280;24231;52.514;13.438;2023-01-27T00:35:12;101706.94;;;4.12;61.75
38452;BME280;24231;52.514;13.438;2023-01-27T00:37:40;101706.13;;;3.77;62.29
38452;BME280;24231;52.514;13.438;2023-01-27T00:40:08;101703.71;;;4.18;60.86
38452;BME280;24231;52.514;13.438;2023-01-27T00:42:36;101711.03;;;3.71;63.37
38452;BME280;24231;52.514;13.438;2023-01-27T00:45:05;101712.41;;;4.21;60.87
38452;BME280;24231;52.514;13.438;2023-01-27T00:47:32;101713.56;;;3.78;63.11
38452;BME280;24231;52.514;13.438;2023-01-27T00:49:59;101715.53;;;2.83;67.04
38452;BME280;24231;52.514;13.438;2023-01-27T00:52:27;101714.99;;;2.89;66.43
38452;BME280;24231;52.514;13.438;2023-01-27T00:54:54;101714.29;;;3.51;64.04
38452;BME280;24231;52.514;13.438;2023-01-27T00:57:22;101719.01;;;3.78;63.28
38452;BME280;24231;52.514;13.438;2023-01-27T00:59:49;101725.29;;;2.31;68.53
38452;BME280;24231;52.514;13.438;2023-01-27T01:02:16;101730.72;;;1.72;70.15
38452;BME280;24231;52.514;13.438;2023-01-27T01:04:43;101724.29;;;2.36;69.43
38452;BME280;24231;52.514;13.438;2023-01-27T01:07:10;101727.61;;;2.99;66.15
38452;BME280;24231;52.514;13.438;2023-01-27T01:09:38;101730.24;;;2.84;67.44
38452;BME280;24231;52.514;13.438;2023-01-27T01:12:05;101732.92;;;3.40;65.60
38452;BME280;24231;52.514;13.438;2023-01-27T01:14:32;101730.53;;;2.85;67.43
38452;BME280;24231;52.514;13.438;2023-01-27T01:17:00;101733.96;;;2.63;68.33
38452;BME280;24231;52.514;13.438;2023-01-27T01:19:28;101731.04;;;3.08;66.71
38452;BME280;24231;52.514;13.438;2023-01-27T01:21:56;101737.05;;;1.76;71.44
38452;BME280;24231;52.514;13.438;2023-01-27T01:24:23;101735.69;;;2.55;68.78
38452;BME280;24231;52.514;13.438;2023-01-27T01:26:50;101735.30;;;2.56;68.64
38452;BME280;24231;52.514;13.438;2023-01-27T01:29:17;101734.96;;;3.17;67.01
38452;BME280;24231;52.514;13.438;2023-01-27T01:31:44;101735.79;;;3.27;66.30
38452;BME280;24231;52.514;13.438;2023-01-27T01:34:11;101739.73;;;3.25;66.38
38452;BME280;24231;52.514;13.438;2023-01-27T01:36:38;101746.18;;;1.96;70.15
38452;BME280;24231;52.514;13.438;2023-01-27T01:39:06;101748.24;;;1.41;71.74
38452;BME280;24231;52.514;13.438;2023-01-27T01:41:33;101744.10;;;2.37;70.58
38452;BME280;24231;52.514;13.438;2023-01-27T01:44:18;101740.38;;;2.65;68.92
38452;BME280;24231;52.514;13.438;2023-01-27T01:46:45;101747.29;;;2.20;71.50
38452;BME280;24231;52.514;13.438;2023-01-27T01:49:13;101745.77;;;2.22;69.17
38452;BME280;24231;52.514;13.438;2023-01-27T01:51:43;101747.36;;;3.33;65.84
38452;BME280;24231;52.514;13.438;2023-01-27T01:54:21;101745.55;;;3.80;64.41
38452;BME280;24231;52.514;13.438;2023-01-27T01:56:53;101744.78;;;3.76;63.63
38452;BME280;24231;52.514;13.438;2023-01-27T01:59:26;101748.49;;;3.89;62.62
38452;BME280;24231;52.514;13.438;2023-01-27T02:01:56;101748.35;;;3.95;61.62
38452;BME280;24231;52.514;13.438;2023-01-27T02:04:26;101748.23;;;3.95;62.03
38452;BME280;24231;52.514;13.438;2023-01-27T02:06:59;101751.83;;;4.11;61.30
38452;BME280;24231;52.514;13.438;2023-01-27T02:09:28;101748.45;;;4.27;60.92
38452;BME280;24231;52.514;13.438;2023-01-27T02:11:57;101744.84;;;3.95;62.25
38452;BME280;24231;52.514;13.438;2023-01-27T02:14:25;101740.92;;;4.30;60.55
38452;BME280;24231;52.514;13.438;2023-01-27T02:16:53;101740.46;;;4.53;59.24
38452;BME280;24231;52.514;13.438;2023-01-27T02:19:26;101742.10;;;2.93;64.02
38452;BME280;24231;52.514;13.438;2023-01-27T02:21:57;101738.35;;;4.38;59.68
38452;BME280;24231;52.514;13.438;2023-01-27T02:24:38;101741.65;;;3.92;61.13
38452;BME280;24231;52.514;13.438;2023-01-27T02:27:07;101740.82;;;4.47;59.17
38452;BME280;24231;52.514;13.438;2023-01-27T02:29:35;101739.45;;;4.48;59.07
38452;BME280;24231;52.514;13.438;2023-01-27T02:32:02;101736.64;;;4.33;59.79
38452;BME280;24231;52.514;13.438;2023-01-27T02:34:33;101736.07;;;4.37;59.38
38452;BME280;24231;52.514;13.438;2023-01-27T02:37:04;101732.24;;;4.26;59.63
38452;BME280;24231;52.514;13.438;2023-01-27T02:39:39;101736.97;;;3.78;61.16
38452;BME280;24231;52.514;13.438;2023-01-27T02:42:09;101739.13;;;4.00;60.34
38452;BME280;24231;52.514;13.438;2023-01-27T02:44:38;101742.37;;;4.20;59.85
38452;BME280;24231;52.514;13.438;2023-01-27T02:47:06;101745.38;;;2.79;63.74
38452;BME280;24231;52.514;13.438;2023-01-27T02:49:33;101746.98;;;3.23;63.73
38452;BME280;24231;52.514;13.438;2023-01-27T02:52:01;101749.27;;;4.17;60.67
38452;BME280;24231;52.514;13.438;2023-01-27T02:54:29;101750.43;;;3.74;61.07
38452;BME280;24231;52.514;13.438;2023-01-27T02:56:57;101757.32;;;3.09;64.10
38452;BME280;24231;52.514;13.438;2023-01-27T02:59:24;101760.93;;;3.38;63.00
38452;BME280;24231;52.514;13.438;2023-01-27T03:01:52;101763.71;;;3.80;61.63
38452;BME280;24231;52.514;13.438;2023-01-27T03:04:19;101765.63;;;3.48;62.65
38452;BME280;24231;52.514;13.438;2023-01-27T03:06:46;101767.39;;;3.08;63.16
38452;BME280;24231;52.514;13.438;2023-01-27T03:09:15;101768.30;;;3.72;61.42
38452;BME280;24231;52.514;13.438;2023-01-27T03:11:42;101767.74;;;4.08;59.85
38452;BME280;24231;52.514;13.438;2023-01-27T03:14:09;101769.38;;;4.28;59.82
38452;BME280;24231;52.514;13.438;2023-01-27T03:16:37;101759.72;;;4.47;59.21
38452;BME280;24231;52.514;13.438;2023-01-27T03:19:04;101757.43;;;4.54;59.14
38452;BME280;24231;52.514;13.438;2023-01-27T03:21:31;101755.66;;;4.26;59.96
38452;BME280;24231;52.514;13.438;2023-01-27T03:23:59;101757.77;;;4.07;60.28
38452;BME280;24231;52.514;13.438;2023-01-27T03:26:26;101757.06;;;4.58;59.14
38452;BME280;24231;52.514;13.438;2023-01-27T03:28:54;101755.62;;;4.37;59.36
38452;BME280;24231;52.514;13.438;2023-01-27T03:31:21;101752.69;;;4.89;57.51
38452;BME280;24231;52.514;13.438;2023-01-27T03:33:48;101754.28;;;4.88;57.26
38452;BME280;24231;52.514;13.438;2023-01-27T03:36:16;101759.13;;;4.70;57.93
38452;BME280;24231;52.514;13.438;2023-01-27T03:38:43;101760.31;;;4.88;57.58
38452;BME280;24231;52.514;13.438;2023-01-27T03:41:20;101761.48;;;4.87;57.93
38452;BME280;24231;52.514;13.438;2023-01-27T03:43:47;101762.04;;;4.59;59.06
38452;BME280;24231;52.514;13.438;2023-01-27T03:46:15;101762.06;;;4.52;59.21
38452;BME280;24231;52.514;13.438;2023-01-27T03:48:42;101766.07;;;4.30;60.36
38452;BME280;24231;52.514;13.438;2023-01-27T03:51:10;101764.90;;;4.09;61.20
38452;BME280;24231;52.514;13.438;2023-01-27T03:53:37;101757.95;;;4.32;60.72
38452;BME280;24231;52.514;13.438;2023-01-27T03:56:05;101761.25;;;4.18;60.81
38452;BME280;24231;52.514;13.438;2023-01-27T03:58:34;101758.76;;;4.42;60.53
38452;BME280;24231;52.514;13.438;2023-01-27T04:01:04;101759.02;;;4.55;59.84
38452;BME280;24231;52.514;13.438;2023-01-27T04:03:34;101764.25;;;3.89;62.28
38452;BME280;24231;52.514;13.438;2023-01-27T04:06:03;101760.66;;;4.25;60.20
38452;BME280;24231;52.514;13.438;2023-01-27T04:08:30;101757.99;;;4.29;59.88
38452;BME280;24231;52.514;13.438;2023-01-27T04:11:02;101757.68;;;4.31;60.53
38452;BME280;24231;52.514;13.438;2023-01-27T04:13:29;101758.30;;;4.63;59.13
38452;BME280;24231;52.514;13.438;2023-01-27T04:15:57;101758.66;;;4.61;59.15
38452;BME280;24231;52.514;13.438;2023-01-27T04:18:24;101760.86;;;4.54;59.00
38452;BME280;24231;52.514;13.438;2023-01-27T04:20:52;101759.11;;;4.75;58.70
38452;BME280;24231;52.514;13.438;2023-01-27T04:23:19;101762.44;;;4.87;58.77
38452;BME280;24231;52.514;13.438;2023-01-27T04:25:46;101764.81;;;4.60;60.07
38452;BME280;24231;52.514;13.438;2023-01-27T04:28:13;101767.93;;;4.65;59.58
38452;BME280;24231;52.514;13.438;2023-01-27T04:30:41;101765.89;;;4.59;59.41
38452;BME280;24231;52.514;13.438;2023-01-27T04:33:08;101770.11;;;4.62;59.92
38452;BME280;24231;52.514;13.438;2023-01-27T04:35:35;101771.36;;;4.66;59.62
38452;BME280;24231;52.514;13.438;2023-01-27T04:38:02;101770.64;;;4.75;59.25
38452;BME280;24231;52.514;13.438;2023-01-27T04:40:30;101766.44;;;4.87;59.16
38452;BME280;24231;52.514;13.438;2023-01-27T04:42:57;101764.71;;;5.01;58.90
38452;BME280;24231;52.514;13.438;2023-01-27T04:45:24;101771.95;;;4.00;62.60
38452;BME280;24231;52.514;13.438;2023-01-27T04:47:52;101776.77;;;2.95;66.01
38452;BME280;24231;52.514;13.438;2023-01-27T04:50:19;101779.79;;;3.78;64.02
38452;BME280;24231;52.514;13.438;2023-01-27T04:52:46;101780.58;;;4.05;62.80
38452;BME280;24231;52.514;13.438;2023-01-27T04:55:14;101775.43;;;4.73;60.55
38452;BME280;24231;52.514;13.438;2023-01-27T04:57:41;101772.90;;;4.87;59.63
38452;BME280;24231;52.514;13.438;2023-01-27T05:00:10;101778.03;;;3.93;63.17
38452;BME280;24231;52.514;13.438;2023-01-27T05:02:37;101780.28;;;4.37;61.14
38452;BME280;24231;52.514;13.438;2023-01-27T05:05:04;101782.72;;;5.22;58.22
38452;BME280;24231;52.514;13.438;2023-01-27T05:07:31;101783.00;;;5.02;58.71
38452;BME280;24231;52.514;13.438;2023-01-27T05:09:58;101788.12;;;5.18;58.60
38452;BME280;24231;52.514;13.438;2023-01-27T05:12:26;101792.75;;;5.28;57.93
38452;BME280;24231;52.514;13.438;2023-01-27T05:14:54;101794.89;;;5.36;57.64
38452;BME280;24231;52.514;13.438;2023-01-27T05:17:21;101794.60;;;5.50;57.31
38452;BME280;24231;52.514;13.438;2023-01-27T05:19:48;101796.26;;;5.08;57.97
38452;BME280;24231;52.514;13.438;2023-01-27T05:22:16;101800.85;;;5.22;58.10
38452;BME280;24231;52.514;13.438;2023-01-27T05:24:43;101805.48;;;5.22;58.69
38452;BME280;24231;52.514;13.438;2023-01-27T05:27:11;101807.12;;;5.39;57.81
38452;BME280;24231;52.514;13.438;2023-01-27T05:29:38;101810.16;;;4.59;59.87
38452;BME280;24231;52.514;13.438;2023-01-27T05:32:05;101816.27;;;4.32;60.28
38452;BME280;24231;52.514;13.438;2023-01-27T05:34:32;101817.21;;;4.41;61.60
38452;BME280;24231;52.514;13.438;2023-01-27T05:36:59;101819.30;;;4.26;61.94
38452;BME280;24231;52.514;13.438;2023-01-27T05:39:27;101820.91;;;4.59;61.44
38452;BME280;24231;52.514;13.438;2023-01-27T05:41:54;101816.87;;;4.78;60.95
38452;BME280;24231;52.514;13.438;2023-01-27T05:44:21;101820.40;;;5.14;59.42
38452;BME280;24231;52.514;13.438;2023-01-27T05:46:48;101822.17;;;5.29;58.93
38452;BME280;24231;52.514;13.438;2023-01-27T05:49:16;101822.27;;;3.29;65.29
38452;BME280;24231;52.514;13.438;2023-01-27T05:51:42;101822.44;;;4.48;62.18
38452;BME280;24231;52.514;13.438;2023-01-27T05:54:09;101820.06;;;4.80;61.87
38452;BME280;24231;52.514;13.438;2023-01-27T05:56:37;101825.76;;;4.30;62.03
38452;BME280;24231;52.514;13.438;2023-01-27T05:59:04;101822.48;;;5.21;60.91
38452;BME280;24231;52.514;13.438;2023-01-27T06:01:33;101822.81;;;4.97;61.26
38452;BME280;24231;52.514;13.438;2023-01-27T06:04:01;101829.05;;;4.73;62.45
38452;BME280;24231;52.514;13.438;2023-01-27T06:06:29;101823.28;;;4.81;62.04
38452;BME280;24231;52.514;13.438;2023-01-27T06:08:57;101823.27;;;4.62;62.89
38452;BME280;24231;52.514;13.438;2023-01-27T06:11:25;101830.46;;;4.27;64.19
38452;BME280;24231;52.514;13.438;2023-01-27T06:13:53;101831.33;;;3.67;66.43
38452;BME280;24231;52.514;13.438;2023-01-27T06:16:21;101822.81;;;4.31;65.12
38452;BME280;24231;52.514;13.438;2023-01-27T06:18:48;101820.99;;;3.76;67.61
38452;BME280;24231;52.514;13.438;2023-01-27T06:21:16;101817.74;;;4.23;65.46
38452;BME280;24231;52.514;13.438;2023-01-27T06:23:44;101817.88;;;4.03;66.11
38452;BME280;24231;52.514;13.438;2023-01-27T06:26:13;101822.82;;;3.85;66.08
38452;BME280;24231;52.514;13.438;2023-01-27T06:28:41;101820.56;;;4.42;65.41
38452;BME280;24231;52.514;13.438;2023-01-27T06:31:10;101820.60;;;3.90;66.12
38452;BME280;24231;52.514;13.438;2023-01-27T06:33:38;101823.20;;;3.22;68.04
38452;BME280;24231;52.514;13.438;2023-01-27T06:36:08;101825.69;;;3.70;68.49
38452;BME280;24231;52.514;13.438;2023-01-27T06:38:36;101829.54;;;3.75;67.99
38452;BME280;24231;52.514;13.438;2023-01-27T06:41:04;101830.51;;;3.33;67.84
38452;BME280;24231;52.514;13.438;2023-01-27T06:43:31;101833.60;;;2.81;69.00
38452;BME280;24231;52.514;13.438;2023-01-27T06:45:58;101845.72;;;2.28;73.15
38452;BME280;24231;52.514;13.438;2023-01-27T06:48:26;101843.78;;;3.11;72.07
38452;BME280;24231;52.514;13.438;2023-01-27T06:50:55;101845.06;;;4.04;66.83
38452;BME280;24231;52.514;13.438;2023-01-27T06:53:23;101846.33;;;4.64;65.34
38452;BME280;24231;52.514;13.438;2023-01-27T06:55:54;101841.71;;;3.32;69.32
38452;BME280;24231;52.514;13.438;2023-01-27T06:58:22;101840.41;;;4.35;66.39
38452;BME280;24231;52.514;13.438;2023-01-27T07:00:50;101843.46;;;4.13;67.03
38452;BME280;24231;52.514;13.438;2023-01-27T07:03:17;101849.89;;;4.04;66.02
38452;BME280;24231;52.514;13.438;2023-01-27T07:05:45;101848.13;;;4.89;64.78
38452;BME280;24231;52.514;13.438;2023-01-27T07:08:13;101850.04;;;4.58;65.38
38452;BME280;24231;52.514;13.438;2023-01-27T07:10:40;101855.49;;;3.86;66.51
38452;BME280;24231;52.514;13.438;2023-01-27T07:13:09;101858.20;;;4.55;66.33
38452;BME280;24231;52.514;13.438;2023-01-27T07:15:37;101853.88;;;4.96;64.44
38452;BME280;24231;52.514;13.438;2023-01-27T07:18:04;101856.14;;;4.03;68.24
38452;BME280;24231;52.514;13.438;2023-01-27T07:20:32;101853.98;;;4.94;64.61
38452;BME280;24231;52.514;13.438;2023-01-27T07:23:01;101858.80;;;4.80;65.11
38452;BME280;24231;52.514;13.438;2023-01-27T07:25:29;101862.01;;;4.45;66.87
38452;BME280;24231;52.514;13.438;2023-01-27T07:27:57;101866.49;;;3.59;69.11
38452;BME280;24231;52.514;13.438;2023-01-27T07:30:28;101866.53;;;4.01;68.97
38452;BME280;24231;52.514;13.438;2023-01-27T07:33:02;101870.13;;;3.44;72.19
38452;BME280;24231;52.514;13.438;2023-01-27T07:35:29;101873.69;;;3.41;72.38
38452;BME280;24231;52.514;13.438;2023-01-27T07:37:57;101871.25;;;3.55;72.25
38452;BME280;24231;52.514;13.438;2023-01-27T07:40:24;101874.39;;;3.73;70.18
38452;BME280;24231;52.514;13.438;2023-01-27T07:42:52;101877.71;;;3.92;70.49
38452;BME280;24231;52.514;13.438;2023-01-27T07:45:19;101875.67;;;3.64;71.97
38452;BME280;24231;52.514;13.438;2023-01-27T07:47:45;101886.36;;;2.72;75.68
38452;BME280;24231;52.514;13.438;2023-01-27T07:50:13;101880.35;;;3.86;70.64
38452;BME280;24231;52.514;13.438;2023-01-27T07:52:40;101886.39;;;2.90;74.08
38452;BME280;24231;52.514;13.438;2023-01-27T07:55:20;101888.34;;;2.28;78.80
38452;BME280;24231;52.514;13.438;2023-01-27T07:57:47;101884.29;;;3.73;72.49
38452;BME280;24231;52.514;13.438;2023-01-27T08:00:16;101891.80;;;2.57;77.82
38452;BME280;24231;52.514;13.438;2023-01-27T08:02:43;101882.35;;;3.77;72.85
38452;BME280;24231;52.514;13.438;2023-01-27T08:05:11;101884.38;;;3.75;73.99
38452;BME280;24231;52.514;13.438;2023-01-27T08:07:38;101892.09;;;3.02;77.08
38452;BME280;24231;52.514;13.438;2023-01-27T08:10:05;101897.19;;;2.60;78.07
38452;BME280;24231;52.514;13.438;2023-01-27T08:12:32;101887.08;;;3.86;73.04
38452;BME280;24231;52.514;13.438;2023-01-27T08:15:00;101888.03;;;4.23;72.31
38452;BME280;24231;52.514;13.438;2023-01-27T08:17:27;101888.31;;;3.60;74.84
38452;BME280;24231;52.514;13.438;2023-01-27T08:19:54;101883.70;;;3.68;74.54
38452;BME280;24231;52.514;13.438;2023-01-27T08:22:22;101894.24;;;2.76;77.90
38452;BME280;24231;52.514;13.438;2023-01-27T08:24:49;101895.49;;;2.93;78.27
38452;BME280;24231;52.514;13.438;2023-01-27T08:27:17;101902.91;;;2.90;79.04
38452;BME280;24231;52.514;13.438;2023-01-27T08:29:45;101896.65;;;3.30;76.63
38452;BME280;24231;52.514;13.438;2023-01-27T08:32:13;101897.18;;;4.28;73.79
38452;BME280;24231;52.514;13.438;2023-01-27T08:34:41;101902.62;;;4.10;73.48
38452;BME280;24231;52.514;13.438;2023-01-27T08:37:07;101900.22;;;3.52;76.79
38452;BME280;24231;52.514;13.438;2023-01-27T08:39:34;101905.62;;;3.41;77.85
38452;BME280;24231;52.514;13.438;2023-01-27T08:42:02;101914.74;;;3.03;78.37
38452;BME280;24231;52.514;13.438;2023-01-27T08:44:29;101909.88;;;3.87;76.19
38452;BME280;24231;52.514;13.438;2023-01-27T08:46:56;101914.04;;;3.98;75.21
38452;BME280;24231;52.514;13.438;2023-01-27T08:49:23;101913.60;;;3.82;74.34
38452;BME280;24231;52.514;13.438;2023-01-27T08:51:50;101912.94;;;5.11;70.26
38452;BME280;24231;52.514;13.438;2023-01-27T08:54:17;101916.72;;;4.55;72.76
38452;BME280;24231;52.514;13.438;2023-01-27T08:56:44;101916.76;;;3.67;76.22
38452;BME280;24231;52.514;13.438;2023-01-27T08:59:12;101919.91;;;4.70;72.05
38452;BME280;24231;52.514;13.438;2023-01-27T09:01:39;101921.79;;;4.82;71.91
38452;BME280;24231;52.514;13.438;2023-01-27T09:04:06;101921.44;;;3.57;78.16
38452;BME280;24231;52.514;13.438;2023-01-27T09:06:34;101924.97;;;3.81;75.48
38452;BME280;24231;52.514;13.438;2023-01-27T09:09:07;101924.86;;;4.42;73.86
38452;BME280;24231;52.514;13.438;2023-01-27T09:11:34;101927.39;;;4.38;73.69
38452;BME280;24231;52.514;13.438;2023-01-27T09:14:01;101927.77;;;3.83;75.03
38452;BME280;24231;52.514;13.438;2023-01-27T09:16:29;101930.60;;;4.69;72.66
38452;BME280;24231;52.514;13.438;2023-01-27T09:18:55;101934.73;;;5.12;71.55
38452;BME280;24231;52.514;13.438;2023-01-27T09:21:23;101940.37;;;4.37;74.99
38452;BME280;24231;52.514;13.438;2023-01-27T09:23:51;101942.12;;;3.93;77.22
38452;BME280;24231;52.514;13.438;2023-01-27T09:26:18;101943.82;;;4.94;72.73
38452;BME280;24231;52.514;13.438;2023-01-27T09:28:46;101947.92;;;5.47;69.99
38452;BME280;24231;52.514;13.438;2023-01-27T09:31:13;101948.85;;;3.96;74.84
38452;BME280;24231;52.514;13.438;2023-01-27T09:33:40;101949.06;;;4.80;72.75
38452;BME280;24231;52.514;13.438;2023-01-27T09:36:10;101955.27;;;4.46;72.74
38452;BME280;24231;52.514;13.438;2023-01-27T09:38:44;101952.53;;;4.12;74.59
38452;BME280;24231;52.514;13.438;2023-01-27T09:41:28;101954.91;;;5.50;69.89
38452;BME280;24231;52.514;13.438;2023-01-27T09:44:16;101954.02;;;4.49;73.26
38452;BME280;24231;52.514;13.438;2023-01-27T09:47:05;101957.26;;;4.15;72.62
38452;BME280;24231;52.514;13.438;2023-01-27T09:49:50;101960.02;;;4.19;75.73
38452;BME280;24231;52.514;13.438;2023-01-27T09:52:36;101962.43;;;4.76;73.50
38452;BME280;24231;52.514;13.438;2023-01-27T09:55:15;101960.37;;;4.80;73.35
38452;BME280;24231;52.514;13.438;2023-01-27T09:57:54;101959.41;;;4.83;73.24
38452;BME280;24231;52.514;13.438;2023-01-27T10:00:38;101961.59;;;4.00;75.49
38452;BME280;24231;52.514;13.438;2023-01-27T10:03:21;101964.19;;;4.50;74.91
38452;BME280;24231;52.514;13.438;2023-01-27T10:06:07;101970.03;;;3.99;77.94
38452;BME280;24231;52.514;13.438;2023-01-27T10:08:56;101969.54;;;4.54;74.75
38452;BME280;24231;52.514;13.438;2023-01-27T10:11:32;101969.43;;;3.57;77.82
38452;BME280;24231;52.514;13.438;2023-01-27T10:14:18;101970.82;;;3.69;77.12
38452;BME280;24231;52.514;13.438;2023-01-27T10:17:01;101973.18;;;3.65;77.55
38452;BME280;24231;52.514;13.438;2023-01-27T10:19:46;101977.52;;;3.78;77.70
38452;BME280;24231;52.514;13.438;2023-01-27T10:22:21;101971.43;;;4.07;75.80
38452;BME280;24231;52.514;13.438;2023-01-27T10:24:59;101972.08;;;2.66;84.65
38452;BME280;24231;52.514;13.438;2023-01-27T10:27:34;101975.00;;;3.46;80.30
38452;BME280;24231;52.514;13.438;2023-01-27T10:30:09;101975.42;;;2.99;82.07
38452;BME280;24231;52.514;13.438;2023-01-27T10:32:44;101979.02;;;3.49;80.47
38452;BME280;24231;52.514;13.438;2023-01-27T10:35:16;101983.15;;;3.59;79.76
38452;BME280;24231;52.514;13.438;2023-01-27T10:37:52;101979.76;;;2.78;82.78
38452;BME280;24231;52.514;13.438;2023-01-27T10:40:34;101983.81;;;3.01;82.81
38452;BME280;24231;52.514;13.438;2023-01-27T10:43:09;101979.22;;;4.20;77.80
38452;BME280;24231;52.514;13.438;2023-01-27T10:45:44;101982.72;;;3.13;82.25
38452;BME280;24231;52.514;13.438;2023-01-27T10:48:24;101982.28;;;3.27;81.62
38452;BME280;24231;52.514;13.438;2023-01-27T10:51:08;101980.62;;;4.23;76.82
38452;BME280;24231;52.514;13.438;2023-01-27T10:53:47;101982.75;;;3.76;78.34
38452;BME280;24231;52.514;13.438;2023-01-27T10:56:19;101982.93;;;3.18;81.42
38452;BME280;24231;52.514;13.438;2023-01-27T10:58:54;101982.33;;;2.59;83.17
38452;BME280;24231;52.514;13.438;2023-01-27T11:01:30;101981.19;;;3.07;81.40
38452;BME280;24231;52.514;13.438;2023-01-27T11:04:01;101983.69;;;3.26;80.09
38452;BME280;24231;52.514;13.438;2023-01-27T11:06:34;101978.73;;;4.00;78.12
38452;BME280;24231;52.514;13.438;2023-01-27T11:09:10;101977.73;;;4.52;74.33
38452;BME280;24231;52.514;13.438;2023-01-27T11:11:42;101978.37;;;4.91;72.54
38452;BME280;24231;52.514;13.438;2023-01-27T11:14:20;101982.21;;;4.51;74.99
38452;BME280;24231;52.514;13.438;2023-01-27T11:16:50;101978.89;;;4.23;74.67
38452;BME280;24231;52.514;13.438;2023-01-27T11:19:25;101980.97;;;3.20;78.94
38452;BME280;24231;52.514;13.438;2023-01-27T11:21:54;101984.29;;;3.65;76.34
38452;BME280;24231;52.514;13.438;2023-01-27T11:24:28;101986.05;;;3.60;75.92
38452;BME280;24231;52.514;13.438;2023-01-27T11:27:04;101981.70;;;3.76;76.57
38452;BME280;24231;52.514;13.438;2023-01-27T11:29:39;101976.65;;;4.42;73.89
38452;BME280;24231;52.514;13.438;2023-01-27T11:32:17;101977.83;;;4.77;72.95
38452;BME280;24231;52.514;13.438;2023-01-27T11:34:59;101974.14;;;4.22;75.09
38452;BME280;24231;52.514;13.438;2023-01-27T11:37:30;101972.01;;;5.26;73.53
38452;BME280;24231;52.514;13.438;2023-01-27T11:40:00;101970.09;;;5.20;70.14
38452;BME280;24231;52.514;13.438;2023-01-27T11:42:30;101969.22;;;4.80;72.00
38452;BME280;24231;52.514;13.438;2023-01-27T11:45:00;101970.82;;;4.93;72.76
38452;BME280;24231;52.514;13.438;2023-01-27T11:47:31;101971.14;;;5.35;70.15
38452;BME280;24231;52.514;13.438;2023-01-27T11:50:02;101968.93;;;4.97;72.57
38452;BME280;24231;52.514;13.438;2023-01-27T11:52:31;101975.85;;;3.86;77.35
38452;BME280;24231;52.514;13.438;2023-01-27T11:55:05;101976.72;;;3.93;75.40
38452;BME280;24231;52.514;13.438;2023-01-27T11:57:41;101974.85;;;3.30;79.61
38452;BME280;24231;52.514;13.438;2023-01-27T12:00:20;101972.45;;;3.25;78.81
38452;BME280;24231;52.514;13.438;2023-01-27T12:02:53;101967.75;;;4.16;75.54
38452;BME280;24231;52.514;13.438;2023-01-27T12:05:29;101966.86;;;4.48;73.43
38452;BME280;24231;52.514;13.438;2023-01-27T12:07:59;101967.54;;;4.04;75.25
38452;BME280;24231;52.514;13.438;2023-01-27T12:10:29;101965.07;;;5.67;68.78
38452;BME280;24231;52.514;13.438;2023-01-27T12:13:00;101968.67;;;4.67;71.46
38452;BME280;24231;52.514;13.438;2023-01-27T12:15:29;101970.30;;;4.84;71.86
38452;BME280;24231;52.514;13.438;2023-01-27T12:17:59;101977.96;;;3.20;78.77
38452;BME280;24231;52.514;13.438;2023-01-27T12:20:32;101976.06;;;4.42;74.92
38452;BME280;24231;52.514;13.438;2023-01-27T12:23:04;101972.24;;;4.04;74.43
38452;BME280;24231;52.514;13.438;2023-01-27T12:25:42;101973.23;;;5.42;70.08
38452;BME280;24231;52.514;13.438;2023-01-27T12:28:26;101971.28;;;5.19;71.11
38452;BME280;24231;52.514;13.438;2023-01-27T12:31:03;101970.80;;;5.24;69.81
38452;BME280;24231;52.514;13.438;2023-01-27T12:33:32;101970.58;;;4.82;71.38
38452;BME280;24231;52.514;13.438;2023-01-27T12:36:13;101967.67;;;5.07;71.04
38452;BME280;24231;52.514;13.438;2023-01-27T12:38:45;101968.27;;;4.75;71.76
38452;BME280;24231;52.514;13.438;2023-01-27T12:41:22;101969.20;;;5.03;70.08
38452;BME280;24231;52.514;13.438;2023-01-27T12:43:52;101965.71;;;4.32;73.80
38452;BME280;24231;52.514;13.438;2023-01-27T12:46:22;101967.27;;;5.20;69.96
38452;BME280;24231;52.514;13.438;2023-01-27T12:48:51;101966.80;;;5.15;69.30
38452;BME280;24231;52.514;13.438;2023-01-27T12:51:21;101964.70;;;4.16;73.26
38452;BME280;24231;52.514;13.438;2023-01-27T12:53:55;101962.67;;;4.62;71.47
38452;BME280;24231;52.514;13.438;2023-01-27T12:56:41;101972.63;;;3.70;74.51
38452;BME280;24231;52.514;13.438;2023-01-27T12:59:13;101978.14;;;3.19;77.21
38452;BME280;24231;52.514;13.438;2023-01-27T13:01:55;101971.06;;;4.72;70.72
38452;BME280;24231;52.514;13.438;2023-01-27T13:04:24;101978.95;;;3.87;74.84
38452;BME280;24231;52.514;13.438;2023-01-27T13:06:55;101985.09;;;3.38;75.61